Time;durP1;ratioP1;P1;durP2;ratioP2;P2;SDS_P1;SDS_P2;PMS_P1;PMS_P2;Temp;Humidity;BMP_temperature;BMP_pressure;BME280_temperature;BME280_humidity;BME280_pressure;Samples;Min_cycle;Max_cycle;Signal;HPM_P1;HPM_P2
2021/03/09 00:01:25;;;;;;;50.27;26.77;;;4.10;1.00;;;;;;5093797;28;20218;-70
2021/03/09 00:03:50;;;;;;;48.67;27.07;;;4.10;1.00;;;;;;5093474;28;20265;-70
2021/03/09 00:06:16;;;;;;;48.83;26.47;;;3.90;1.00;;;;;;5093606;28;20200;-70
2021/03/09 00:08:41;;;;;;;47.33;26.20;;;3.90;1.00;;;;;;5093223;28;20542;-70
2021/03/09 00:11:07;;;;;;;51.20;26.00;;;4.10;1.00;;;;;;5093447;28;20509;-70
2021/03/09 00:13:32;;;;;;;47.33;26.20;;;4.00;1.00;;;;;;5093514;28;20171;-70
2021/03/09 00:15:58;;;;;;;50.60;25.60;;;4.10;1.00;;;;;;5093501;28;20644;-69
2021/03/09 00:18:23;;;;;;;47.87;24.83;;;4.00;1.00;;;;;;5093466;28;20258;-70
2021/03/09 00:20:49;;;;;;;47.83;26.20;;;4.20;1.00;;;;;;5093149;28;20217;-70
2021/03/09 00:23:14;;;;;;;49.23;25.77;;;4.20;1.00;;;;;;5093062;28;20199;-70
2021/03/09 00:25:40;;;;;;;48.40;24.53;;;4.00;1.00;;;;;;5093092;28;20171;-70
2021/03/09 00:28:06;;;;;;;53.53;26.43;;;4.20;1.00;;;;;;5093241;28;20174;-70
2021/03/09 00:30:31;;;;;;;58.50;27.10;;;4.40;1.00;;;;;;5093369;28;20175;-70
2021/03/09 00:32:57;;;;;;;50.53;26.17;;;4.10;1.00;;;;;;5092914;28;20191;-69
2021/03/09 00:35:22;;;;;;;57.30;28.67;;;4.00;1.00;;;;;;5093210;28;20178;-70
2021/03/09 00:37:48;;;;;;;51.83;27.83;;;4.20;1.00;;;;;;5093211;28;20181;-69
2021/03/09 00:40:13;;;;;;;46.63;26.00;;;4.30;1.00;;;;;;5092861;28;20168;-69
2021/03/09 00:42:39;;;;;;;48.43;26.80;;;4.10;1.00;;;;;;5092899;28;20241;-69
2021/03/09 00:45:05;;;;;;;44.87;24.10;;;4.10;1.00;;;;;;5092932;28;20163;-69
2021/03/09 00:47:31;;;;;;;45.20;25.00;;;4.10;1.00;;;;;;5092743;28;20300;-69
2021/03/09 00:49:56;;;;;;;47.67;25.60;;;4.00;1.00;;;;;;5092164;28;20221;-69
2021/03/09 00:52:22;;;;;;;51.13;24.83;;;4.00;1.00;;;;;;5092991;28;20188;-70
2021/03/09 00:54:47;;;;;;;49.63;27.57;;;3.70;1.00;;;;;;5092739;28;20640;-70
2021/03/09 00:57:13;;;;;;;54.47;27.37;;;3.70;1.00;;;;;;5092705;28;20254;-69
2021/03/09 00:59:38;;;;;;;46.07;25.43;;;4.00;1.00;;;;;;5093480;28;20632;-69
2021/03/09 01:02:04;;;;;;;42.50;24.63;;;3.90;1.00;;;;;;5092666;28;20206;-69
2021/03/09 01:04:29;;;;;;;52.93;25.90;;;4.00;1.00;;;;;;5092678;28;20194;-70
2021/03/09 01:06:55;;;;;;;54.27;26.43;;;3.90;1.00;;;;;;5092494;28;20187;-70
2021/03/09 01:09:20;;;;;;;55.67;25.97;;;3.80;1.00;;;;;;5093064;28;20559;-70
2021/03/09 01:11:46;;;;;;;46.87;23.03;;;3.90;1.00;;;;;;5092782;28;20195;-70
2021/03/09 01:14:11;;;;;;;52.87;26.83;;;4.00;1.00;;;;;;5092816;28;20171;-70
2021/03/09 01:16:37;;;;;;;45.97;25.17;;;3.80;1.00;;;;;;5092879;28;20228;-70
2021/03/09 01:19:03;;;;;;;51.70;26.77;;;3.70;1.00;;;;;;5092891;28;20168;-70
2021/03/09 01:21:28;;;;;;;50.60;26.70;;;3.80;1.00;;;;;;5092430;28;20687;-69
2021/03/09 01:23:54;;;;;;;47.67;25.30;;;4.00;1.00;;;;;;5092847;28;20265;-70
2021/03/09 01:26:19;;;;;;;50.80;26.10;;;3.90;1.00;;;;;;5092544;28;20252;-69
2021/03/09 01:28:45;;;;;;;45.90;25.83;;;3.80;1.00;;;;;;5092479;28;20168;-70
2021/03/09 01:31:10;;;;;;;51.83;26.07;;;3.80;1.00;;;;;;5092311;28;20179;-70
2021/03/09 01:33:36;;;;;;;53.67;26.90;;;3.80;1.00;;;;;;5092409;28;20172;-70
2021/03/09 01:36:02;;;;;;;49.23;26.20;;;4.00;1.00;;;;;;5092507;28;20582;-70
2021/03/09 01:38:27;;;;;;;45.10;24.60;;;4.20;1.00;;;;;;5092544;28;20388;-70
2021/03/09 01:40:53;;;;;;;49.23;25.13;;;4.10;1.00;;;;;;5092032;28;20191;-70
2021/03/09 01:43:18;;;;;;;60.80;27.70;;;4.00;1.00;;;;;;5092518;28;20199;-70
2021/03/09 01:45:44;;;;;;;49.60;25.17;;;4.40;1.00;;;;;;5093277;28;20240;-70
2021/03/09 01:48:10;;;;;;;53.77;27.40;;;4.30;1.00;;;;;;5092291;28;20573;-70
2021/03/09 01:50:39;;;;;;;48.67;25.27;;;4.10;1.00;;;;;;5092468;28;20168;-70
2021/03/09 01:53:07;;;;;;;46.78;23.98;;;4.10;1.00;;;;;;5092127;28;20191;-70
2021/03/09 01:55:34;;;;;;;46.88;27.20;;;4.30;1.00;;;;;;5092494;28;20171;-70
2021/03/09 01:58:05;;;;;;;47.65;26.10;;;4.40;1.00;;;;;;5092385;28;20167;-70
2021/03/09 02:00:31;;;;;;;51.65;26.58;;;4.00;1.00;;;;;;5094155;28;20260;-69
2021/03/09 02:02:58;;;;;;;47.00;25.27;;;3.90;1.00;;;;;;5095732;28;20210;-70
2021/03/09 02:05:23;;;;;;;51.67;25.67;;;4.40;1.00;;;;;;5095706;28;20663;-69
2021/03/09 02:07:49;;;;;;;52.20;25.50;;;4.40;1.00;;;;;;5095518;28;20210;-70
2021/03/09 02:10:16;;;;;;;47.57;26.70;;;4.40;1.00;;;;;;5095631;28;20167;-70
2021/03/09 02:13:07;;;;;;;51.67;27.20;;;4.40;1.00;;;;;;5095750;28;20199;-69
2021/03/09 02:15:39;;;;;;;47.38;26.58;;;4.10;1.00;;;;;;5095623;28;20690;-69
2021/03/09 02:18:14;;;;;;;49.25;26.35;;;4.30;1.00;;;;;;5095911;28;20164;-70
2021/03/09 02:21:01;;;;;;;50.08;27.23;;;4.20;1.00;;;;;;5095476;28;20186;-70
2021/03/09 02:23:57;;;;;;;51.63;25.95;;;4.20;1.00;;;;;;5095600;28;20156;-70
2021/03/09 02:26:34;;;;;;;50.65;27.42;;;4.30;1.00;;;;;;5095343;28;20168;-69
2021/03/09 02:29:27;;;;;;;55.38;28.38;;;4.20;1.00;;;;;;5095232;28;20531;-70
2021/03/09 02:31:54;;;;;;;63.63;29.40;;;4.10;1.00;;;;;;5095322;28;20189;-70
2021/03/09 02:34:27;;;;;;;56.78;28.65;;;4.20;1.00;;;;;;5095154;28;20250;-70
2021/03/09 02:36:54;;;;;;;53.55;30.17;;;4.10;1.00;;;;;;5095433;28;20156;-69
2021/03/09 02:39:21;;;;;;;59.00;29.13;;;4.10;1.00;;;;;;5095326;28;20167;-70
2021/03/09 02:41:49;;;;;;;56.80;27.95;;;4.00;1.40;;;;;;5094906;28;20290;-70
2021/03/09 02:44:18;;;;;;;54.50;28.63;;;4.30;1.00;;;;;;5094964;28;20624;-69
2021/03/09 02:46:46;;;;;;;52.95;25.92;;;4.30;1.00;;;;;;5094808;28;20220;-69
2021/03/09 02:49:12;;;;;;;55.78;28.88;;;4.40;1.00;;;;;;5095114;28;20501;-70
2021/03/09 02:51:40;;;;;;;60.67;29.40;;;4.60;1.00;;;;;;5094803;28;20195;-69
2021/03/09 02:54:08;;;;;;;59.05;29.15;;;4.40;1.00;;;;;;5094801;28;20311;-69
2021/03/09 02:56:38;;;;;;;52.58;27.27;;;4.50;1.00;;;;;;5094763;28;20652;-69
2021/03/09 02:59:08;;;;;;;51.45;28.13;;;4.50;1.00;;;;;;5095007;28;20686;-69
2021/03/09 03:01:35;;;;;;;56.70;26.58;;;4.40;1.00;;;;;;5094532;28;20575;-70
2021/03/09 03:04:03;;;;;;;54.72;28.02;;;4.60;1.00;;;;;;5094555;28;20167;-70
2021/03/09 03:06:33;;;;;;;51.22;27.90;;;4.50;1.00;;;;;;5094469;28;20163;-70
2021/03/09 03:09:00;;;;;;;62.28;29.83;;;4.50;1.00;;;;;;5095185;28;20159;-70
2021/03/09 03:11:26;;;;;;;50.33;26.58;;;4.40;1.00;;;;;;5093662;28;20687;-70
2021/03/09 03:13:53;;;;;;;52.70;26.27;;;4.60;1.00;;;;;;5094557;28;20178;-70
2021/03/09 03:16:21;;;;;;;48.47;24.30;;;4.60;1.00;;;;;;5094709;28;20471;-70
2021/03/09 03:18:48;;;;;;;52.72;26.67;;;4.40;1.00;;;;;;5094358;28;20203;-69
2021/03/09 03:21:15;;;;;;;53.55;26.20;;;4.60;1.00;;;;;;5094221;28;20202;-70
2021/03/09 03:23:43;;;;;;;49.15;25.15;;;4.90;1.00;;;;;;5094645;28;20712;-70
2021/03/09 03:26:12;;;;;;;50.17;27.05;;;4.80;1.00;;;;;;5094298;28;20175;-70
2021/03/09 03:28:43;;;;;;;49.90;23.88;;;4.60;1.00;;;;;;5094218;28;20160;-69
2021/03/09 03:31:09;;;;;;;47.80;25.80;;;4.50;1.00;;;;;;5094415;28;20163;-70
2021/03/09 03:33:35;;;;;;;49.30;25.50;;;4.30;1.00;;;;;;5094155;28;20655;-70
2021/03/09 03:36:04;;;;;;;51.97;24.97;;;4.20;1.00;;;;;;5094022;28;20277;-69
2021/03/09 03:38:35;;;;;;;51.63;28.27;;;4.20;1.00;;;;;;5094053;28;20384;-70
2021/03/09 03:41:02;;;;;;;49.70;26.80;;;4.30;1.00;;;;;;5093879;28;20191;-70
2021/03/09 03:43:28;;;;;;;49.25;27.45;;;3.90;1.00;;;;;;5094825;28;20512;-69
2021/03/09 03:45:54;;;;;;;48.95;25.98;;;4.10;1.00;;;;;;5094174;28;20579;-70
2021/03/09 03:48:21;;;;;;;52.57;27.50;;;3.90;1.00;;;;;;5094172;28;20171;-70
2021/03/09 03:50:48;;;;;;;46.60;27.13;;;3.80;83.80;;;;;;5094656;28;20608;-70
2021/03/09 03:53:21;;;;;;;54.88;28.98;;;4.00;1.30;;;;;;5093651;28;20195;-70
2021/03/09 03:55:58;;;;;;;51.20;27.67;;;3.90;11.70;;;;;;5093987;28;20209;-69
2021/03/09 03:58:43;;;;;;;50.20;25.65;;;4.00;91.80;;;;;;5093703;28;20187;-70
2021/03/09 04:01:11;;;;;;;47.85;24.98;;;3.90;39.60;;;;;;5093961;28;20652;-70
2021/03/09 04:03:37;;;;;;;43.30;26.58;;;4.10;29.80;;;;;;5093688;28;20349;-70
2021/03/09 04:06:04;;;;;;;53.17;28.45;;;3.80;18.70;;;;;;5093745;28;20176;-70
2021/03/09 04:08:32;;;;;;;54.22;27.67;;;3.70;99.90;;;;;;5093218;28;20191;-69
2021/03/09 04:10:59;;;;;;;52.17;27.60;;;3.60;99.90;;;;;;5093497;28;20167;-69
2021/03/09 04:13:25;;;;;;;50.20;26.52;;;3.70;99.90;;;;;;5093404;28;20175;-69
2021/03/09 04:15:52;;;;;;;47.97;25.55;;;3.80;99.90;;;;;;5093647;28;20517;-69
2021/03/09 04:18:19;;;;;;;55.08;29.48;;;3.80;99.90;;;;;;5093309;28;20175;-69
2021/03/09 04:20:45;;;;;;;52.72;29.15;;;3.80;99.90;;;;;;5093185;28;20195;-69
2021/03/09 04:23:12;;;;;;;55.95;29.60;;;4.00;99.90;;;;;;5093306;28;20598;-69
2021/03/09 04:25:40;;;;;;;55.55;28.20;;;3.90;99.90;;;;;;5093186;28;20168;-69
2021/03/09 04:28:06;;;;;;;58.78;30.20;;;4.30;99.90;;;;;;5093158;28;20160;-69
2021/03/09 04:30:33;;;;;;;53.10;28.60;;;4.40;36.70;;;;;;5093109;28;20250;-69
2021/03/09 04:33:00;;;;;;;48.33;26.77;;;4.30;1.00;;;;;;5093305;28;20187;-69
2021/03/09 04:35:27;;;;;;;54.17;29.05;;;4.40;1.00;;;;;;5092967;28;20167;-69
2021/03/09 04:37:54;;;;;;;59.85;31.10;;;4.40;27.00;;;;;;5093207;28;20523;-69
2021/03/09 04:40:19;;;;;;;62.05;29.38;;;4.50;5.70;;;;;;5093978;28;20232;-69
2021/03/09 04:42:45;;;;;;;56.47;31.87;;;4.40;1.00;;;;;;5092885;28;20679;-69
2021/03/09 04:45:11;;;;;;;66.53;36.37;;;4.50;1.00;;;;;;5092918;28;20463;-69
2021/03/09 04:47:37;;;;;;;69.40;34.35;;;4.40;1.00;;;;;;5093167;28;20592;-69
2021/03/09 04:50:07;;;;;;;68.90;34.90;;;4.10;1.00;;;;;;5092750;28;20160;-69
2021/03/09 04:52:33;;;;;;;66.28;32.50;;;4.30;1.00;;;;;;5092697;28;20525;-69
2021/03/09 04:54:58;;;;;;;63.27;32.53;;;4.30;1.00;;;;;;5093084;28;20254;-69
2021/03/09 04:57:38;;;;;;;59.97;31.30;;;4.30;1.00;;;;;;5092857;28;20173;-69
2021/03/09 05:00:07;;;;;;;61.28;33.65;;;4.40;1.00;;;;;;5092807;28;20155;-69
2021/03/09 05:02:32;;;;;;;64.03;31.98;;;4.40;1.00;;;;;;5092552;28;20278;-69
2021/03/09 05:04:58;;;;;;;65.17;32.17;;;4.30;1.00;;;;;;5092754;28;20247;-69
2021/03/09 05:07:24;;;;;;;66.63;33.50;;;4.30;1.00;;;;;;5092633;28;20184;-69
2021/03/09 05:09:49;;;;;;;66.87;35.47;;;4.40;1.00;;;;;;5092688;28;20174;-69
2021/03/09 05:12:15;;;;;;;68.53;34.30;;;4.40;1.00;;;;;;5092712;28;20195;-69
2021/03/09 05:14:40;;;;;;;67.10;35.37;;;4.50;1.00;;;;;;5092689;28;20199;-69
2021/03/09 05:17:06;;;;;;;65.30;33.13;;;4.40;1.00;;;;;;5092630;28;20650;-67
2021/03/09 05:19:31;;;;;;;70.63;32.97;;;4.50;1.00;;;;;;5092830;28;20550;-69
2021/03/09 05:21:57;;;;;;;69.50;33.67;;;4.40;1.00;;;;;;5092455;28;20581;-69
2021/03/09 05:24:22;;;;;;;68.23;36.47;;;4.30;1.00;;;;;;5092587;28;20186;-68
2021/03/09 05:26:48;;;;;;;70.97;33.67;;;4.20;1.00;;;;;;5092761;28;20174;-69
2021/03/09 05:29:13;;;;;;;63.67;33.27;;;4.40;1.00;;;;;;5092539;28;20514;-69
2021/03/09 05:31:39;;;;;;;65.97;34.87;;;4.40;1.00;;;;;;5092421;28;20199;-69
2021/03/09 05:34:04;;;;;;;62.33;32.20;;;4.40;1.00;;;;;;5092417;28;20490;-69
2021/03/09 05:36:32;;;;;;;63.63;35.47;;;4.40;1.00;;;;;;5096198;28;20648;-69
2021/03/09 05:38:58;;;;;;;65.95;34.70;;;4.40;1.00;;;;;;5096604;28;20509;-69
2021/03/09 05:41:24;;;;;;;66.77;35.13;;;4.40;1.00;;;;;;5096251;28;20199;-67
2021/03/09 05:43:51;;;;;;;66.28;34.53;;;4.30;1.00;;;;;;5096493;28;20179;-69
2021/03/09 05:46:17;;;;;;;57.08;33.72;;;4.30;62.30;;;;;;5096422;28;20175;-69
2021/03/09 05:48:43;;;;;;;66.87;34.83;;;4.40;39.40;;;;;;5096372;28;20171;-69
2021/03/09 05:51:08;;;;;;;63.13;31.73;;;4.40;1.00;;;;;;5096241;28;20175;-69
2021/03/09 05:53:34;;;;;;;68.53;35.67;;;4.30;34.00;;;;;;5096212;28;20661;-69
2021/03/09 05:56:03;;;;;;;62.13;34.20;;;4.50;1.00;;;;;;5095879;28;20517;-69
2021/03/09 05:58:28;;;;;;;68.82;35.70;;;4.60;1.00;;;;;;5095885;28;20171;-69
2021/03/09 06:00:55;;;;;;;62.70;33.77;;;4.20;1.00;;;;;;5095688;28;20199;-69
2021/03/09 06:03:20;;;;;;;62.45;35.85;;;4.20;9.70;;;;;;5095954;28;20201;-69
2021/03/09 06:05:46;;;;;;;74.93;36.40;;;4.30;41.30;;;;;;5096126;28;20172;-69
2021/03/09 06:08:11;;;;;;;64.87;33.93;;;4.40;65.90;;;;;;5095638;28;20256;-69
2021/03/09 06:10:37;;;;;;;68.17;33.50;;;4.40;20.60;;;;;;5095841;28;20160;-69
2021/03/09 06:13:03;;;;;;;62.73;31.77;;;4.40;5.20;;;;;;5095721;28;20547;-69
2021/03/09 06:15:28;;;;;;;62.77;32.90;;;4.40;37.30;;;;;;5095617;28;20171;-69
2021/03/09 06:17:56;;;;;;;68.90;35.53;;;4.50;35.30;;;;;;5095862;28;20168;-69
2021/03/09 06:20:24;;;;;;;65.88;32.78;;;4.30;44.00;;;;;;5095778;28;20591;-69
2021/03/09 06:22:58;;;;;;;60.03;34.50;;;4.30;99.90;;;;;;5095733;28;20306;-69
2021/03/09 06:25:38;;;;;;;57.95;32.10;;;4.40;44.40;;;;;;5096075;28;20573;-68
2021/03/09 06:28:06;;;;;;;65.80;33.95;;;4.40;99.90;;;;;;5095590;28;20215;-69
2021/03/09 06:30:34;;;;;;;67.93;34.30;;;4.30;62.50;;;;;;5095196;28;20160;-69
2021/03/09 06:33:00;;;;;;;64.22;33.70;;;4.20;99.90;;;;;;5094959;28;20274;-69
2021/03/09 06:35:35;;;;;;;68.07;35.33;;;4.40;96.30;;;;;;5095173;28;20202;-69
2021/03/09 06:38:17;;;;;;;66.43;34.42;;;4.30;99.90;;;;;;5095093;28;20621;-69
2021/03/09 06:40:44;;;;;;;65.85;35.60;;;4.40;78.40;;;;;;5095105;28;20163;-69
2021/03/09 06:43:15;;;;;;;65.38;33.63;;;4.40;99.90;;;;;;5093393;28;20192;-70
2021/03/09 06:45:40;;;;;;;63.35;34.58;;;4.50;71.90;;;;;;5094177;28;20171;-69
2021/03/09 06:48:21;;;;;;;63.13;35.90;;;4.40;81.10;;;;;;5094086;28;20163;-69
2021/03/09 06:50:46;;;;;;;69.72;34.85;;;4.20;79.80;;;;;;5095195;28;20167;-69
2021/03/09 06:53:12;;;;;;;65.33;34.20;;;4.40;99.90;;;;;;5094528;28;20551;-69
2021/03/09 06:55:38;;;;;;;67.37;37.37;;;4.50;99.90;;;;;;5094945;28;20501;-68
2021/03/09 06:58:10;;;;;;;63.87;33.00;;;4.60;91.40;;;;;;5094673;28;20228;-69
2021/03/09 07:00:36;;;;;;;64.85;33.80;;;4.40;99.90;;;;;;5094643;28;20217;-68
2021/03/09 07:03:02;;;;;;;70.30;35.10;;;4.60;99.90;;;;;;5094532;28;20228;-69
2021/03/09 07:05:27;;;;;;;69.87;33.70;;;4.60;99.90;;;;;;5094494;28;20402;-67
2021/03/09 07:07:53;;;;;;;67.97;33.43;;;4.50;99.90;;;;;;5094298;28;20186;-68
2021/03/09 07:10:20;;;;;;;67.87;33.00;;;4.60;99.90;;;;;;5094514;28;20175;-68
2021/03/09 07:12:47;;;;;;;67.43;36.05;;;4.60;99.90;;;;;;5094496;28;20210;-68
2021/03/09 07:15:15;;;;;;;64.63;33.95;;;4.60;99.90;;;;;;5094480;28;20206;-68
2021/03/09 07:17:41;;;;;;;64.50;34.55;;;4.30;99.90;;;;;;5094469;28;20167;-69
2021/03/09 07:20:12;;;;;;;64.38;35.00;;;4.40;99.90;;;;;;5094482;28;20163;-68
2021/03/09 07:22:40;;;;;;;60.03;32.67;;;4.50;99.90;;;;;;5094019;28;20200;-69
2021/03/09 07:25:12;;;;;;;55.53;31.67;;;4.60;99.90;;;;;;5092940;28;20203;-69
2021/03/09 07:28:00;;;;;;;64.22;34.53;;;4.50;99.90;;;;;;5094271;28;20167;-69
2021/03/09 07:30:28;;;;;;;66.18;33.10;;;4.40;99.90;;;;;;5094378;28;20155;-68
2021/03/09 07:32:56;;;;;;;60.30;31.40;;;4.50;99.90;;;;;;5094424;28;20236;-67
2021/03/09 07:35:23;;;;;;;58.97;32.58;;;4.60;99.90;;;;;;5093899;28;20167;-69
2021/03/09 07:37:50;;;;;;;58.15;30.25;;;4.40;99.90;;;;;;5094362;28;20174;-68
2021/03/09 07:40:18;;;;;;;59.63;33.10;;;4.50;99.90;;;;;;5093949;28;20178;-69
2021/03/09 07:42:44;;;;;;;58.92;32.08;;;4.60;99.90;;;;;;5093809;28;20199;-68
2021/03/09 07:45:13;;;;;;;58.87;32.13;;;4.60;99.90;;;;;;5093572;28;20309;-68
2021/03/09 07:48:00;;;;;;;53.78;30.17;;;4.50;99.90;;;;;;5092356;28;20183;-69
2021/03/09 07:50:34;;;;;;;57.50;32.28;;;4.70;99.90;;;;;;5093780;28;20162;-69
2021/03/09 07:53:13;;;;;;;66.05;30.95;;;4.70;99.90;;;;;;5093596;28;20683;-69
2021/03/09 07:55:40;;;;;;;52.10;30.73;;;4.80;99.90;;;;;;5093329;28;20182;-68
2021/03/09 07:58:26;;;;;;;56.08;30.35;;;4.50;99.90;;;;;;5093483;28;20206;-68
2021/03/09 08:01:00;;;;;;;56.10;31.05;;;4.40;99.90;;;;;;5093126;28;20198;-68
2021/03/09 08:03:44;;;;;;;52.05;29.17;;;4.30;99.90;;;;;;5093727;28;20162;-68
2021/03/09 08:06:15;;;;;;;55.40;30.35;;;4.60;99.90;;;;;;5093601;28;20156;-69
2021/03/09 08:08:43;;;;;;;52.42;27.52;;;4.60;99.90;;;;;;5093001;28;20244;-69
2021/03/09 08:11:22;;;;;;;55.05;30.58;;;4.50;99.90;;;;;;5093015;28;20167;-68
2021/03/09 08:14:03;;;;;;;48.50;26.35;;;4.50;99.90;;;;;;5093499;28;20159;-68
2021/03/09 08:16:36;;;;;;;48.38;25.17;;;4.50;99.90;;;;;;5093280;28;20175;-68
2021/03/09 08:19:08;;;;;;;49.45;24.73;;;4.50;99.90;;;;;;5091857;28;20274;-68
2021/03/09 08:22:19;;;;;;;51.92;27.20;;;4.30;99.90;;;;;;5093747;28;20464;-69
2021/03/09 08:24:47;;;;;;;47.30;25.92;;;4.50;99.90;;;;;;5088899;28;20183;-68
2021/03/09 08:27:27;;;;;;;40.70;23.25;;;4.50;99.90;;;;;;5093482;28;20167;-69
2021/03/09 08:29:53;;;;;;;46.58;25.20;;;4.70;99.90;;;;;;5093180;28;20167;-69
2021/03/09 08:32:30;;;;;;;43.10;22.80;;;4.40;99.90;;;;;;5092937;28;20199;-69
2021/03/09 08:35:27;;;;;;;42.50;22.95;;;4.60;99.90;;;;;;5092969;28;20670;-69
2021/03/09 08:37:53;;;;;;;47.83;24.58;;;4.80;99.90;;;;;;5076246;28;20213;-69
2021/03/09 08:40:21;;;;;;;41.57;23.13;;;4.70;99.90;;;;;;5093185;28;20175;-69
2021/03/09 08:43:01;;;;;;;43.15;22.13;;;4.50;99.90;;;;;;5092492;28;20195;-69
2021/03/09 08:45:40;;;;;;;43.17;22.20;;;4.40;99.90;;;;;;5092965;28;20217;-68
2021/03/09 08:48:09;;;;;;;44.15;23.40;;;4.50;99.90;;;;;;5092717;28;20592;-68
2021/03/09 08:50:38;;;;;;;43.40;21.52;;;4.60;99.90;;;;;;5092937;28;20605;-67
2021/03/09 08:53:04;;;;;;;42.08;23.00;;;4.60;99.90;;;;;;5092374;28;20191;-70
2021/03/09 08:55:30;;;;;;;47.17;23.98;;;4.40;99.90;;;;;;5091309;28;20175;-69
2021/03/09 08:57:56;;;;;;;41.70;22.80;;;4.40;99.90;;;;;;5092799;28;20168;-69
2021/03/09 09:00:21;;;;;;;44.20;24.43;;;4.50;99.90;;;;;;5092674;28;20790;-69
2021/03/09 09:02:47;;;;;;;45.07;23.00;;;4.40;99.90;;;;;;5092565;28;20207;-69
2021/03/09 09:05:13;;;;;;;40.70;23.13;;;4.60;99.90;;;;;;5092704;28;20257;-69
2021/03/09 09:07:40;;;;;;;39.57;23.80;;;4.70;99.90;;;;;;5092302;28;20690;-68
2021/03/09 09:10:14;;;;;;;41.05;21.77;;;4.80;99.90;;;;;;5094185;28;20308;-69
2021/03/09 09:12:50;;;;;;;42.72;24.35;;;4.80;99.90;;;;;;5096407;28;20183;-69
2021/03/09 09:15:33;;;;;;;43.10;22.75;;;4.90;99.90;;;;;;5096437;28;20183;-69
2021/03/09 09:18:06;;;;;;;43.78;26.17;;;4.70;99.90;;;;;;5096850;28;20167;-68
2021/03/09 09:20:41;;;;;;;44.45;23.10;;;4.70;99.90;;;;;;5096553;28;20156;-69
2021/03/09 09:23:09;;;;;;;44.38;24.35;;;4.70;99.90;;;;;;5096358;28;20195;-69
2021/03/09 09:25:44;;;;;;;48.83;22.20;;;4.80;99.90;;;;;;5096603;28;20309;-69
2021/03/09 09:28:46;;;;;;;41.80;23.70;;;4.70;99.90;;;;;;5096625;28;20620;-69
2021/03/09 09:31:15;;;;;;;41.40;21.55;;;4.80;99.90;;;;;;5092239;28;20208;-69
2021/03/09 09:33:46;;;;;;;44.75;23.60;;;4.70;99.90;;;;;;5096568;28;20172;-69
2021/03/09 09:36:11;;;;;;;45.10;25.15;;;4.60;1.00;;;;;;5096699;28;20564;-69
2021/03/09 09:38:37;;;;;;;44.93;23.63;;;4.60;1.00;;;;;;5096429;28;20175;-69
2021/03/09 09:41:03;;;;;;;40.17;22.20;;;4.70;99.90;;;;;;5096366;28;20195;-68
2021/03/09 09:43:31;;;;;;;50.60;24.83;;;4.60;99.90;;;;;;5096161;28;20176;-69
2021/03/09 09:45:58;;;;;;;42.00;24.08;;;4.70;1.00;;;;;;5096347;28;20391;-70
2021/03/09 09:48:29;;;;;;;43.40;23.55;;;4.80;1.00;;;;;;5095856;28;20175;-69
2021/03/09 09:50:58;;;;;;;42.42;22.67;;;4.80;99.90;;;;;;5095573;28;20171;-67
2021/03/09 09:53:43;;;;;;;43.08;23.30;;;4.80;1.00;;;;;;5096000;28;20175;-69
2021/03/09 09:56:11;;;;;;;39.47;22.27;;;4.80;99.90;;;;;;5095881;28;20228;-69
2021/03/09 09:58:52;;;;;;;51.05;24.17;;;4.70;99.90;;;;;;5095749;28;20179;-69
2021/03/09 10:01:31;;;;;;;49.97;23.88;;;4.70;99.90;;;;;;5095704;28;20717;-69
2021/03/09 10:04:02;;;;;;;48.35;22.65;;;5.00;1.00;;;;;;5095886;28;20617;-69
2021/03/09 10:06:29;;;;;;;48.80;24.45;;;4.90;99.90;;;;;;5095410;28;20154;-69
2021/03/09 10:09:06;;;;;;;41.45;23.13;;;4.90;99.90;;;;;;5096180;28;20168;-70
2021/03/09 10:11:32;;;;;;;47.85;25.20;;;5.10;99.90;;;;;;5095871;28;20191;-70
2021/03/09 10:14:05;;;;;;;47.10;22.57;;;5.10;1.00;;;;;;5096402;28;20175;-70
2021/03/09 10:16:38;;;;;;;50.70;24.85;;;4.80;99.90;;;;;;5095741;28;20186;-69
2021/03/09 10:19:03;;;;;;;43.08;22.67;;;5.10;1.00;;;;;;5095400;28;20181;-69
2021/03/09 10:21:33;;;;;;;41.67;22.97;;;5.10;1.00;;;;;;5095061;28;20286;-69
2021/03/09 10:24:01;;;;;;;41.33;22.73;;;5.10;1.00;;;;;;5095176;28;20636;-69
2021/03/09 10:26:32;;;;;;;38.92;22.40;;;4.90;1.00;;;;;;5095386;28;20173;-69
2021/03/09 10:29:03;;;;;;;48.40;23.70;;;4.90;13.10;;;;;;5095457;28;20187;-68
2021/03/09 10:31:42;;;;;;;37.50;21.90;;;5.00;1.00;;;;;;5093727;28;20195;-69
2021/03/09 10:34:08;;;;;;;33.50;20.27;;;5.00;1.00;;;;;;5095401;28;20167;-69
2021/03/09 10:37:00;;;;;;;40.17;24.30;;;5.00;1.00;;;;;;5095933;28;20252;-69
2021/03/09 10:39:26;;;;;;;37.95;20.45;;;4.80;1.00;;;;;;5094941;28;20401;-69
2021/03/09 10:41:52;;;;;;;36.55;21.23;;;5.00;1.00;;;;;;5094961;28;20290;-68
2021/03/09 10:44:32;;;;;;;40.30;21.60;;;5.00;1.00;;;;;;5095274;28;20168;-67
2021/03/09 10:46:59;;;;;;;34.53;19.92;;;4.90;44.10;;;;;;5095625;28;20160;-68
2021/03/09 10:49:25;;;;;;;34.75;20.08;;;5.00;99.90;;;;;;5094959;28;20221;-67
2021/03/09 10:52:07;;;;;;;35.93;19.97;;;4.60;99.90;;;;;;5094447;28;20195;-67
2021/03/09 10:54:36;;;;;;;37.85;20.52;;;4.90;99.90;;;;;;5094996;28;20170;-69
2021/03/09 10:57:07;;;;;;;29.45;19.80;;;5.10;1.00;;;;;;5094941;28;20257;-68
2021/03/09 10:59:33;;;;;;;31.65;19.52;;;5.00;99.90;;;;;;5094476;28;20191;-69
2021/03/09 11:01:58;;;;;;;30.83;19.47;;;4.90;99.90;;;;;;5094345;28;20281;-68
2021/03/09 11:04:24;;;;;;;37.63;20.10;;;4.70;99.90;;;;;;5094175;28;20484;-67
2021/03/09 11:06:50;;;;;;;30.00;19.53;;;4.80;99.90;;;;;;5093967;28;20577;-69
2021/03/09 11:09:15;;;;;;;26.97;18.97;;;5.00;1.00;;;;;;5094691;28;20187;-69
2021/03/09 11:11:41;;;;;;;31.43;18.27;;;5.10;99.90;;;;;;5092721;28;20274;-68
2021/03/09 11:14:07;;;;;;;30.43;17.60;;;5.10;99.90;;;;;;5092688;28;20668;-69
2021/03/09 11:16:33;;;;;;;25.83;17.10;;;5.00;99.90;;;;;;5092725;28;20197;-69
2021/03/09 11:18:59;;;;;;;27.17;17.10;;;5.00;1.00;;;;;;5093264;28;20517;-69
2021/03/09 11:21:24;;;;;;;23.60;15.37;;;4.80;1.00;;;;;;5093813;28;20457;-67
2021/03/09 11:23:51;;;;;;;21.17;14.07;;;4.80;99.90;;;;;;5094595;28;20372;-69
2021/03/09 11:26:21;;;;;;;19.88;14.77;;;4.90;1.00;;;;;;5093468;28;20201;-69
2021/03/09 11:28:48;;;;;;;26.45;18.10;;;4.80;99.90;;;;;;5096315;28;20171;-68
2021/03/09 11:31:17;;;;;;;26.45;17.83;;;4.70;99.90;;;;;;5095412;28;20198;-68
2021/03/09 11:33:43;;;;;;;28.77;19.80;;;4.70;1.00;;;;;;5095140;28;20167;-66
2021/03/09 11:36:11;;;;;;;30.97;19.27;;;4.70;1.00;;;;;;5094763;28;20183;-69
2021/03/09 11:38:41;;;;;;;30.63;20.60;;;4.80;99.90;;;;;;5093834;28;20918;-68
2021/03/09 11:41:07;;;;;;;25.67;17.23;;;4.90;97.60;;;;;;5093934;28;20192;-69
2021/03/09 11:43:32;;;;;;;30.87;19.50;;;4.80;1.00;;;;;;5093794;28;20217;-69
2021/03/09 11:45:58;;;;;;;29.50;20.37;;;4.90;99.90;;;;;;5093675;28;20493;-69
2021/03/09 11:48:24;;;;;;;30.00;21.13;;;5.00;1.00;;;;;;5093647;28;20175;-69
2021/03/09 11:50:50;;;;;;;30.92;20.30;;;4.90;1.00;;;;;;5093594;28;20171;-69
2021/03/09 11:53:15;;;;;;;31.93;19.77;;;4.90;16.10;;;;;;5093447;28;20334;-69
2021/03/09 11:55:41;;;;;;;28.17;19.60;;;4.80;1.00;;;;;;5093430;28;20254;-68
2021/03/09 11:58:07;;;;;;;26.20;19.50;;;4.80;1.00;;;;;;5093257;28;20174;-68
2021/03/09 12:00:32;;;;;;;28.03;20.43;;;5.00;1.00;;;;;;5093648;28;20258;-69
2021/03/09 12:02:58;;;;;;;30.40;20.70;;;5.10;1.00;;;;;;5093117;28;20207;-69
2021/03/09 12:05:23;;;;;;;38.83;21.40;;;5.20;1.00;;;;;;5093397;28;20676;-68
2021/03/09 12:07:49;;;;;;;33.40;21.30;;;5.00;1.00;;;;;;5093225;28;20626;-69
2021/03/09 12:10:15;;;;;;;35.63;23.60;;;5.10;1.00;;;;;;5093343;28;20179;-68
2021/03/09 12:12:40;;;;;;;29.43;20.37;;;5.20;1.00;;;;;;5093472;28;20407;-69
2021/03/09 12:15:07;;;;;;;34.13;22.73;;;5.10;1.00;;;;;;5093706;28;20171;-69
2021/03/09 12:17:32;;;;;;;24.15;17.63;;;5.00;1.00;;;;;;5093657;28;20176;-69
2021/03/09 12:19:58;;;;;;;29.07;18.97;;;4.90;99.90;;;;;;5093134;28;20175;-69
2021/03/09 12:22:23;;;;;;;30.57;20.77;;;4.90;1.00;;;;;;5093655;28;20610;-69
2021/03/09 12:24:49;;;;;;;28.73;21.17;;;5.10;1.00;;;;;;5093246;28;20182;-68
2021/03/09 12:27:14;;;;;;;31.03;21.00;;;5.10;1.00;;;;;;5093226;28;20159;-69
2021/03/09 12:29:40;;;;;;;31.60;22.40;;;5.30;1.00;;;;;;5093131;28;20631;-69
2021/03/09 12:32:06;;;;;;;31.67;22.07;;;5.50;99.90;;;;;;5092875;28;20191;-69
2021/03/09 12:34:32;;;;;;;37.05;21.02;;;5.40;1.00;;;;;;5092832;28;20175;-69
2021/03/09 12:36:57;;;;;;;32.87;21.87;;;5.50;1.00;;;;;;5093181;28;20705;-69
2021/03/09 12:39:23;;;;;;;32.73;22.60;;;5.50;1.00;;;;;;5093319;28;20168;-69
2021/03/09 12:41:48;;;;;;;32.77;20.80;;;5.30;1.00;;;;;;5093060;28;20210;-69
2021/03/09 12:44:14;;;;;;;43.13;23.03;;;5.30;1.00;;;;;;5093101;28;20671;-69
2021/03/09 12:46:39;;;;;;;34.30;23.03;;;5.50;8.20;;;;;;5092885;28;20164;-69
2021/03/09 12:49:05;;;;;;;31.67;21.20;;;5.40;1.00;;;;;;5092953;28;20510;-69
2021/03/09 12:51:31;;;;;;;35.87;22.70;;;5.40;99.90;;;;;;5092544;28;20190;-68